Time,TemperatureF,DewpointF,PressureIn,WindDirection,WindDirectionDegrees,WindSpeedMPH,WindSpeedGustMPH,Humidity,HourlyPrecipIn,Conditions,Clouds,dailyrainin,SoftwareType,DateUTC
2013-05-23 00:06:00,61.0,59.0,29.73,SW,225,0.0,-999.0,94,-99.99,,,0.00,weatherlink.com 1.10,2013-05-23 04:06:00,
2013-05-23 01:14:00,61.1,60.0,29.74,SW,225,0.0,-999.0,95,-99.99,,,0.00,weatherlink.com 1.10,2013-05-23 05:14:00,
2013-05-23 01:21:00,61.3,60.0,29.74,SW,226,0.0,-999.0,95,-99.99,,,0.00,weatherlink.com 1.10,2013-05-23 05:21:00,
2013-05-23 01:36:00,61.5,60.0,29.74,SW,225,0.0,-999.0,95,-99.99,,,0.00,weatherlink.com 1.10,2013-05-23 05:36:00,
2013-05-23 01:51:00,61.9,61.0,29.74,WSW,239,1.0,-999.0,95,-99.99,,,0.00,weatherlink.com 1.10,2013-05-23 05:51:00,
2013-05-23 02:06:00,62.0,61.0,29.74,SW,228,0.0,-999.0,95,-99.99,,,0.00,weatherlink.com 1.10,2013-05-23 06:06:00,
2013-05-23 02:21:00,62.0,61.0,29.74,WSW,239,1.0,-999.0,95,-99.99,,,0.00,weatherlink.com 1.10,2013-05-23 06:21:00,
2013-05-23 02:36:00,62.0,61.0,29.74,SW,229,2.0,-999.0,95,-99.99,,,0.00,weatherlink.com 1.10,2013-05-23 06:36:00,
2013-05-23 02:51:00,62.0,61.0,29.73,SW,221,0.0,-999.0,95,-99.99,,,0.00,weatherlink.com 1.10,2013-05-23 06:51:00,
2013-05-23 03:06:00,62.1,61.0,29.73,WSW,243,1.0,-999.0,95,-99.99,,,0.00,weatherlink.com 1.10,2013-05-23 07:06:00,
2013-05-23 03:21:00,62.2,61.0,29.73,SW,229,0.0,-999.0,95,-99.99,,,0.00,weatherlink.com 1.10,2013-05-23 07:21:00,
2013-05-23 03:36:00,62.1,60.0,29.73,WSW,240,0.0,-999.0,94,-99.99,,,0.00,weatherlink.com 1.10,2013-05-23 07:36:00,
2013-05-23 03:51:00,61.8,60.0,29.73,SW,224,0.0,-999.0,94,-99.99,,,0.00,weatherlink.com 1.10,2013-05-23 07:51:00,
2013-05-23 04:06:00,61.4,60.0,29.74,WSW,239,0.0,-999.0,94,-99.99,,,0.00,weatherlink.com 1.10,2013-05-23 08:06:00,
2013-05-23 04:21:00,61.1,59.0,29.74,WSW,240,0.0,-999.0,94,-99.99,,,0.00,weatherlink.com 1.10,2013-05-23 08:21:00,
2013-05-23 04:36:00,60.7,59.0,29.74,SW,236,0.0,-999.0,94,-99.99,,,0.00,weatherlink.com 1.10,2013-05-23 08:36:00,
2013-05-23 04:51:00,60.4,59.0,29.74,WSW,238,0.0,-999.0,94,-99.99,,,0.00,weatherlink.com 1.10,2013-05-23 08:51:00,
2013-05-23 05:06:00,60.2,59.0,29.75,SW,236,0.0,-999.0,94,-99.99,,,0.00,weatherlink.com 1.10,2013-05-23 09:06:00,
2013-05-23 05:21:00,60.1,58.0,29.75,SW,235,0.0,-999.0,94,-99.99,,,0.00,weatherlink.com 1.10,2013-05-23 09:21:00,
2013-05-23 05:36:00,59.9,58.0,29.75,SW,229,0.0,-999.0,94,-99.99,,,0.00,weatherlink.com 1.10,2013-05-23 09:36:00,
2013-05-23 05:51:00,59.7,58.0,29.75,SW,231,0.0,-999.0,94,-99.99,,,0.00,weatherlink.com 1.10,2013-05-23 09:51:00,
2013-05-23 06:06:00,59.7,58.0,29.76,SW,231,0.0,-999.0,94,-99.99,,,0.00,weatherlink.com 1.10,2013-05-23 10:06:00,
2013-05-23 06:21:00,59.8,58.0,29.76,SW,231,0.0,-999.0,94,-99.99,,,0.00,weatherlink.com 1.10,2013-05-23 10:21:00,
2013-05-23 06:36:00,59.9,58.0,29.76,SW,236,0.0,-999.0,94,-99.99,,,0.00,weatherlink.com 1.10,2013-05-23 10:36:00,
2013-05-23 06:51:00,60.0,58.0,29.77,SW,232,0.0,-999.0,94,-99.99,,,0.00,weatherlink.com 1.10,2013-05-23 10:51:00,
2013-05-23 07:06:00,60.2,59.0,29.77,SW,233,0.0,-999.0,94,-99.99,,,0.00,weatherlink.com 1.10,2013-05-23 11:06:00,
2013-05-23 07:21:00,60.3,59.0,29.78,WSW,249,0.0,-999.0,94,-99.99,,,0.00,weatherlink.com 1.10,2013-05-23 11:21:00,
2013-05-23 07:36:00,60.5,59.0,29.78,WSW,239,0.0,-999.0,94,-99.99,,,0.00,weatherlink.com 1.10,2013-05-23 11:36:00,
2013-05-23 07:51:00,60.7,59.0,29.78,WSW,239,1.0,-999.0,94,-99.99,,,0.00,weatherlink.com 1.10,2013-05-23 11:51:00,
2013-05-23 08:06:00,60.8,59.0,29.78,WSW,243,0.0,-999.0,94,-99.99,,,0.00,weatherlink.com 1.10,2013-05-23 12:06:00,
2013-05-23 08:21:00,60.9,59.0,29.78,SW,229,0.0,-999.0,93,-99.99,,,0.00,weatherlink.com 1.10,2013-05-23 12:21:00,
2013-05-23 08:36:00,61.4,59.0,29.78,WSW,240,0.0,-999.0,93,-99.99,,,0.00,weatherlink.com 1.10,2013-05-23 12:36:00,
2013-05-23 08:51:00,62.0,59.0,29.79,WSW,240,1.0,-999.0,91,-99.99,,,0.00,weatherlink.com 1.10,2013-05-23 12:51:00,
2013-05-23 09:06:00,62.4,60.0,29.79,SSW,201,0.0,-999.0,90,-99.99,,,0.00,weatherlink.com 1.10,2013-05-23 13:06:00,
2013-05-23 09:21:00,63.0,60.0,29.79,WSW,245,0.0,-999.0,91,-99.99,,,0.00,weatherlink.com 1.10,2013-05-23 13:21:00,
2013-05-23 09:36:00,63.0,59.0,29.80,SW,235,3.0,-999.0,88,-99.99,,,0.00,weatherlink.com 1.10,2013-05-23 13:36:00,
2013-05-23 09:51:00,63.2,59.0,29.80,SW,217,2.0,-999.0,87,-99.99,,,0.00,weatherlink.com 1.10,2013-05-23 13:51:00,
2013-05-23 10:06:00,63.4,59.0,29.80,WSW,243,0.0,-999.0,86,-99.99,,,0.00,weatherlink.com 1.10,2013-05-23 14:06:00,
2013-05-23 10:21:00,63.7,59.0,29.81,SW,221,3.0,-999.0,85,-99.99,,,0.00,weatherlink.com 1.10,2013-05-23 14:21:00,
2013-05-23 10:36:00,63.7,59.0,29.80,SW,233,0.0,-999.0,84,-99.99,,,0.00,weatherlink.com 1.10,2013-05-23 14:36:00,
2013-05-23 10:51:00,63.8,59.0,29.81,WSW,242,0.0,-999.0,84,-99.99,,,0.00,weatherlink.com 1.10,2013-05-23 14:51:00,
2013-05-23 11:06:00,63.9,59.0,29.81,WSW,248,2.0,-999.0,83,-99.99,,,0.00,weatherlink.com 1.10,2013-05-23 15:06:00,
2013-05-23 11:21:00,63.9,59.0,29.81,SW,225,4.0,-999.0,83,-99.99,,,0.00,weatherlink.com 1.10,2013-05-23 15:21:00,
2013-05-23 11:36:00,63.3,59.0,29.81,NNE,27,0.0,-999.0,85,-99.99,,,0.00,weatherlink.com 1.10,2013-05-23 15:36:00,
2013-05-23 11:51:00,63.1,60.0,29.81,West,263,0.0,-999.0,88,-99.99,,,0.00,weatherlink.com 1.10,2013-05-23 15:51:00,
2013-05-23 12:05:00,64.2,60.0,29.81,NNE,29,0.0,-999.0,86,-99.99,,,0.00,weatherlink.com 1.10,2013-05-23 16:05:00,
2013-05-23 12:21:00,64.6,59.0,29.81,SSW,193,0.0,-999.0,82,-99.99,,,0.00,weatherlink.com 1.10,2013-05-23 16:21:00,
2013-05-23 12:36:00,64.2,59.0,29.81,SE,127,0.0,-999.0,82,-99.99,,,0.00,weatherlink.com 1.10,2013-05-23 16:36:00,
2013-05-23 12:51:00,65.2,59.0,29.81,NE,44,0.0,-999.0,79,-99.99,,,0.00,weatherlink.com 1.10,2013-05-23 16:51:00,
2013-05-23 13:06:00,65.5,58.0,29.81,WSW,257,5.0,-999.0,78,-99.99,,,0.00,weatherlink.com 1.10,2013-05-23 17:06:00,
2013-05-23 13:21:00,65.2,58.0,29.81,North,349,0.0,-999.0,78,-99.99,,,0.00,weatherlink.com 1.10,2013-05-23 17:21:00,
2013-05-23 13:36:00,62.0,55.0,29.83,North,356,0.0,-999.0,79,-99.99,,,0.00,weatherlink.com 1.10,2013-05-23 17:36:00,
2013-05-23 13:51:00,56.8,52.0,29.85,NNE,13,4.0,-999.0,85,-99.99,,,0.00,weatherlink.com 1.10,2013-05-23 17:51:00,
2013-05-23 14:06:00,54.0,51.0,29.86,North,4,2.0,-999.0,88,-99.99,,,0.00,weatherlink.com 1.10,2013-05-23 18:06:00,
2013-05-23 14:21:00,52.8,49.0,29.87,North,1,3.0,-999.0,88,-99.99,,,0.00,weatherlink.com 1.10,2013-05-23 18:21:00,
2013-05-23 14:36:00,51.2,48.0,29.89,NNE,28,4.0,-999.0,89,-99.99,,,0.00,weatherlink.com 1.10,2013-05-23 18:36:00,
2013-05-23 14:51:00,50.1,47.0,29.89,NE,39,3.0,-999.0,90,-99.99,,,0.00,weatherlink.com 1.10,2013-05-23 18:51:00,
2013-05-23 15:06:00,49.6,47.0,29.91,NNE,22,3.0,-999.0,90,-99.99,,,0.00,weatherlink.com 1.10,2013-05-23 19:06:00,
2013-05-23 15:21:00,48.9,46.0,29.91,NNE,33,3.0,-999.0,90,-99.99,,,0.00,weatherlink.com 1.10,2013-05-23 19:21:00,
2013-05-23 15:36:00,48.4,46.0,29.92,NE,36,2.0,-999.0,91,-99.99,,,0.01,weatherlink.com 1.10,2013-05-23 19:36:00,
2013-05-23 15:51:00,48.1,45.0,29.93,North,353,2.0,-999.0,90,-99.99,,,0.01,weatherlink.com 1.10,2013-05-23 19:51:00,
2013-05-23 16:06:00,48.5,46.0,29.93,NNE,30,3.0,-999.0,90,-99.99,,,0.01,weatherlink.com 1.10,2013-05-23 20:06:00,
2013-05-23 16:21:00,48.0,44.0,29.94,North,8,3.0,-999.0,87,-99.99,,,0.01,weatherlink.com 1.10,2013-05-23 20:21:00,
2013-05-23 16:36:00,47.6,44.0,29.95,NNE,33,3.0,-999.0,88,-99.99,,,0.01,weatherlink.com 1.10,2013-05-23 20:36:00,
2013-05-23 16:51:00,46.7,44.0,29.96,NE,39,1.0,-999.0,89,-99.99,,,0.01,weatherlink.com 1.10,2013-05-23 20:51:00,
2013-05-23 17:06:00,46.4,44.0,29.97,NNE,22,1.0,-999.0,91,-99.99,,,0.01,weatherlink.com 1.10,2013-05-23 21:06:00,
2013-05-23 17:21:00,46.4,44.0,29.99,North,1,2.0,-999.0,92,-99.99,,,0.01,weatherlink.com 1.10,2013-05-23 21:21:00,
2013-05-23 17:36:00,46.3,44.0,29.99,North,8,1.0,-999.0,92,-99.99,,,0.02,weatherlink.com 1.10,2013-05-23 21:36:00,
2013-05-23 17:51:00,46.3,44.0,30.00,North,349,1.0,-999.0,92,-99.99,,,0.02,weatherlink.com 1.10,2013-05-23 21:51:00,
2013-05-23 18:06:00,46.1,44.0,30.02,NNE,19,0.0,-999.0,92,-99.99,,,0.02,weatherlink.com 1.10,2013-05-23 22:06:00,
2013-05-23 18:21:00,46.0,44.0,30.02,NNE,32,3.0,-999.0,91,-99.99,,,0.02,weatherlink.com 1.10,2013-05-23 22:21:00,
2013-05-23 18:36:00,46.1,44.0,30.03,North,6,1.0,-999.0,91,-99.99,,,0.02,weatherlink.com 1.10,2013-05-23 22:36:00,
2013-05-23 18:51:00,46.2,44.0,30.03,NNE,27,1.0,-999.0,91,-99.99,,,0.02,weatherlink.com 1.10,2013-05-23 22:51:00,
2013-05-23 19:06:00,46.2,44.0,30.04,North,354,1.0,-999.0,91,-99.99,,,0.02,weatherlink.com 1.10,2013-05-23 23:06:00,
2013-05-23 19:21:00,46.4,44.0,30.05,North,6,1.0,-999.0,91,-99.99,,,0.02,weatherlink.com 1.10,2013-05-23 23:21:00,
2013-05-23 19:36:00,46.6,44.0,30.06,NNE,22,0.0,-999.0,91,-99.99,,,0.02,weatherlink.com 1.10,2013-05-23 23:36:00,
2013-05-23 19:51:00,46.8,44.0,30.06,NNE,24,0.0,-999.0,91,-99.99,,,0.02,weatherlink.com 1.10,2013-05-23 23:51:00,
2013-05-23 20:06:00,46.8,44.0,30.07,NNE,23,3.0,-999.0,91,-99.99,,,0.02,weatherlink.com 1.10,2013-05-24 00:06:00,
2013-05-23 20:21:00,46.9,45.0,30.08,NNW,345,1.0,-999.0,91,-99.99,,,0.02,weatherlink.com 1.10,2013-05-24 00:21:00,
2013-05-23 20:37:00,47.0,45.0,30.09,North,356,2.0,-999.0,91,-99.99,,,0.02,weatherlink.com 1.10,2013-05-24 00:37:00,
2013-05-23 20:51:00,46.9,45.0,30.09,NNE,18,2.0,-999.0,91,-99.99,,,0.02,weatherlink.com 1.10,2013-05-24 00:51:00,
2013-05-23 21:06:00,46.9,44.0,30.10,NNE,30,2.0,-999.0,90,-99.99,,,0.02,weatherlink.com 1.10,2013-05-24 01:06:00,
2013-05-23 21:21:00,46.9,44.0,30.10,NNE,25,1.0,-999.0,90,-99.99,,,0.02,weatherlink.com 1.10,2013-05-24 01:21:00,
2013-05-23 21:36:00,47.0,45.0,30.12,NNE,32,0.0,-999.0,91,-99.99,,,0.02,weatherlink.com 1.10,2013-05-24 01:36:00,
2013-05-23 21:51:00,46.7,44.0,30.12,NNE,23,0.0,-999.0,90,-99.99,,,0.02,weatherlink.com 1.10,2013-05-24 01:51:00,
2013-05-23 22:06:00,46.7,44.0,30.13,North,6,1.0,-999.0,89,-99.99,,,0.02,weatherlink.com 1.10,2013-05-24 02:06:00,
2013-05-23 22:21:00,46.6,44.0,30.14,North,360,0.0,-999.0,89,-99.99,,,0.02,weatherlink.com 1.10,2013-05-24 02:21:00,
2013-05-23 22:36:00,46.6,44.0,30.15,NNE,13,1.0,-999.0,89,-99.99,,,0.02,weatherlink.com 1.10,2013-05-24 02:36:00,
2013-05-23 22:51:00,46.3,44.0,30.15,NE,43,0.0,-999.0,90,-99.99,,,0.02,weatherlink.com 1.10,2013-05-24 02:51:00,
2013-05-23 23:06:00,46.3,44.0,30.16,NE,44,0.0,-999.0,90,-99.99,,,0.02,weatherlink.com 1.10,2013-05-24 03:06:00,
2013-05-23 23:21:00,46.1,44.0,30.16,NNE,27,0.0,-999.0,91,-99.99,,,0.02,weatherlink.com 1.10,2013-05-24 03:21:00,
2013-05-23 23:36:00,46.0,44.0,30.17,North,6,1.0,-999.0,91,-99.99,,,0.02,weatherlink.com 1.10,2013-05-24 03:36:00,
2013-05-23 23:51:00,45.9,44.0,30.17,North,8,1.0,-999.0,91,-99.99,,,0.02,weatherlink.com 1.10,2013-05-24 03:51:00,